Flight Track Log - Related Links

Times and Time Zones

All times are in EDT time to prevent confusion due to time zone crossing. See the SWA4056 flight status page for this flight to view local times or setup timezone preferences in your user account.

Time Position Orientation Groundspeed Altitude Reporting Facility
EDT Latitude Longitude Course Direction KTS MPH feet Rate Location/Type
10:17AM 41.8333 -87.7333 90° East 224 258 2,600  Level Chicago TRACON
10:18AM 41.8167 -87.6667 109° East 230 265 4,000 891 Climbing Chicago TRACON
10:19AM 41.7919 -87.5961 115° Southeast 250 288 4,100 991 Climbing Chicago Center
10:20AM 41.7697 -87.5053 108° East 255 293 5,800 2,565 Climbing Chicago Center
10:21AM 41.7539 -87.4031 102° East 285 328 9,400 3,581 Climbing Chicago Center
10:22AM 41.7500 -86.9987 90° East  Level FlightAware Approximate
10:22AM 41.7572 -87.2772 88° East 311 358 13,200  Level Chicago Center
10:23AM 41.7611 -87.1467 88° East 358 412 15,000 2,226 Climbing Chicago Center
10:24AM 41.7633 -86.9822 89° East 408 470 17,800 2,516 Climbing Chicago Center
10:25AM 41.7639 -86.8311 90° East 420 483 20,200 2,516 Climbing Chicago Center
10:26AM 41.7642 -86.6506 90° East 439 505 23,000 2,419 Climbing Chicago Center
10:27AM 41.7642 -86.4811 90° East 451 519 25,200 2,032 Climbing Chicago Center
10:28AM 41.7617 -86.3056 91° East 469 540 27,200 1,548 Climbing Chicago Center
10:29AM 41.7606 -86.1247 90° East 484 557 28,400 1,597 Climbing Chicago Center
10:30AM 41.7575 -85.9389 91° East 495 570 30,500 2,613 Climbing Chicago Center
10:31AM 41.7731 -85.7639 83° East 472 543 33,800 2,371 Climbing Chicago Center
10:32AM 41.7894 -85.6000 82° East 444 511 35,400 1,403 Climbing Chicago Center
10:33AM 41.8064 -85.4253 83° East 462 532 36,700 1,512 Climbing Chicago Center
10:34AM 41.8239 -85.2194 83° East 460 529 38,500 1,463 Climbing Chicago Center
10:35AM 41.8375 -85.0525 84° East 449 517 39,700 1,016 Climbing Chicago Center
10:36AM 41.8514 -84.8856 84° East 451 519 40,600 629 Climbing Chicago Center
10:37AM 41.8642 -84.7208 84° East 446 513 41,000 207 Climbing Chicago Center
10:38AM 41.8761 -84.5872 83° East 449 517 41,000  Level Cleveland Center
10:39AM 41.8992 -84.3903 81° East 449 517 41,000  Level Cleveland Center
10:40AM 41.9150 -84.2481 81° East 448 516 41,000  Level Cleveland Center
10:41AM 41.9375 -84.0503 81° East 449 517 41,000  Level Cleveland Center
10:42AM 41.9553 -83.8858 82° East 449 517 41,000  Level Cleveland Center
10:43AM 41.9731 -83.7228 82° East 449 517 41,000  Level Cleveland Center
10:44AM 41.9931 -83.5422 81° East 449 517 41,000  Level Cleveland Center
10:45AM 42.0114 -83.3736 82° East 449 517 41,000  Level Cleveland Center
10:46AM 42.0294 -83.2000 82° East 449 517 41,000  Level Cleveland Center
10:47AM 42.0467 -83.0367 82° East 448 516 41,000  Level Cleveland Center
10:48AM 42.0636 -82.8717 82° East 448 516 41,000  Level Cleveland Center
10:49AM 42.0808 -82.7067 82° East 448 516 41,000  Level Cleveland Center
10:51AM 42.1031 -82.5044 82° East 453 521 41,000  Level Cleveland Center
10:52AM 42.1172 -82.3361 83° East 454 522 41,000  Level Cleveland Center
10:53AM 42.1347 -82.1653 82° East 460 529 41,000  Level Cleveland Center
10:54AM 42.1514 -81.9856 83° East 462 532 41,000  Level Cleveland Center
10:55AM 42.1669 -81.8136 83° East 462 532 41,000  Level Cleveland Center
10:56AM 42.1831 -81.6400 83° East 462 532 41,000  Level Cleveland Center
10:57AM 42.1981 -81.4667 83° East 462 532 41,000  Level Cleveland Center
10:58AM 42.2133 -81.2950 83° East 461 531 41,000  Level Cleveland Center
10:59AM 42.2314 -81.0936 83° East 461 531 41,000  Level Cleveland Center
11:00AM 42.2461 -80.9197 83° East 461 531 41,000  Level Cleveland Center
11:01AM 42.2606 -80.7486 83° East 459 528 41,000  Level Cleveland Center
11:02AM 42.2742 -80.5775 84° East 458 527 41,000  Level Cleveland Center
11:03AM 42.2875 -80.4064 84° East 457 526 41,000  Level Cleveland Center
11:04AM 42.3017 -80.2381 83° East 452 520 41,000  Level Cleveland Center
11:05AM 42.3153 -80.0714 84° East 448 516 41,000  Level Cleveland Center
11:06AM 42.3283 -79.8767 85° East 441 507 41,000  Level Cleveland Center
11:07AM 42.3417 -79.7125 84° East 441 507 41,000  Level Cleveland Center
11:08AM 42.3533 -79.5464 85° East 442 509 41,000  Level Cleveland Center
11:09AM 42.3661 -79.3789 84° East 446 513 41,000  Level Cleveland Center
11:10AM 42.3769 -79.2131 85° East 447 514 41,000  Level Cleveland Center
11:11AM 42.3886 -79.0458 85° East 447 514 41,000  Level Cleveland Center
11:12AM 42.4014 -78.8472 85° East 446 513 41,000  Level Cleveland Center
11:13AM 42.4139 -78.6853 84° East 439 505 41,000  Level Cleveland Center
11:14AM 42.4239 -78.5172 85° East 443 510 41,000  Level Cleveland Center
11:15AM 42.4344 -78.3503 85° East 444 511 41,000  Level Cleveland Center
11:16AM 42.4433 -78.1831 86° East 447 514 41,000  Level Cleveland Center
11:17AM 42.4542 -77.9833 86° East 447 514 41,000  Level Cleveland Center
11:18AM 42.4639 -77.8181 85° East 447 514 41,000 -390 Level Cleveland Center
11:19AM 42.4739 -77.6408 86° East 447 514 40,200 -878 Descending Cleveland Center
11:20AM 42.4825 -77.4750 86° East 446 513 39,200 -871 Descending Cleveland Center
11:22AM 42.4917 -77.3242 85° East 447 514 38,400 -968 Descending Cleveland Center
11:23AM 42.5031 -77.1192 86° East 455 524 37,200 -1,016 Descending Cleveland Center
11:24AM 42.5106 -76.9500 87° East 455 524 36,300 -919 Descending Cleveland Center
11:25AM 42.5189 -76.7853 86° East 443 510 35,300 -629 Descending Cleveland Center
11:26AM 42.5264 -76.6208 86° East 442 509 35,000 -145 Descending Cleveland Center
11:27AM 42.5347 -76.4572 86° East 440 506 35,000 -387 Level Cleveland Center
11:28AM 42.5428 -76.2722 87° East 441 507 34,200 -871 Descending Cleveland Center
11:29AM 42.5494 -76.1089 87° East 440 506 33,200 -919 Descending Cleveland Center
11:30AM 42.5569 -75.9442 86° East 440 506 32,300 -1,016 Descending Cleveland Center
11:31AM 42.5394 -75.7461 97° East 443 510 31,100 -1,210 Descending Cleveland Center
11:32AM 42.5178 -75.5814 100° East 448 516 29,800 -1,500 Descending Cleveland Center
11:33AM 42.5039 -75.4181 97° East 442 509 28,000 -1,790 Descending Cleveland Center
11:34AM 42.4903 -75.2581 97° East 434 499 26,100 -1,742 Descending Cleveland Center
11:35AM 42.4756 -75.0997 97° East 432 497 24,400 -1,694 Descending Cleveland Center
11:36AM 42.4603 -74.9375 97° East 433 498 22,600 -1,927 Descending Cleveland Center
11:37AM 42.4394 -74.7147 97° East 428 493 20,000 -1,770 Descending Boston Center
11:38AM 42.4231 -74.5444 97° East 419 482 18,500 -968 Descending Boston Center
11:39AM 42.4078 -74.3928 98° East 411 473 18,000 -242 Descending Boston Center
11:40AM 42.3931 -74.2328 97° East 404 465 18,000  Level Boston Center
11:41AM 42.3783 -74.0819 97° East 404 465 18,000  Level Boston Center
11:42AM 42.3625 -73.9306 98° East 406 467 18,000 -192 Level Boston Center
11:43AM 42.3464 -73.7694 98° East 406 467 17,600 -816 Descending Boston Center
11:44AM 42.3314 -73.6244 98° East 405 466 16,300 -1,721 Descending Boston Center
11:46AM 42.2892 -73.4903 113° Southeast 393 452 14,100 -2,284 Descending Boston Center
11:47AM 42.2219 -73.3311 120° Southeast 373 429 11,200 -1,548 Descending Boston Center
11:48AM 42.1808 -73.2353 120° Southeast 355 409 10,900 -476 Descending Boston Center
11:48AM 42.1733 -73.2200 124° Southeast 341 392 10,700 -1,180 Descending Boston Center
11:49AM 42.1369 -73.1350 120° Southeast 315 362 9,700 -1,446 Descending Boston Center
11:50AM 42.0781 -73.0453 131° Southeast 301 346 8,000 -1,548 Descending Boston Center
11:51AM 42.0222 -72.9661 133° Southeast 297 342 6,500 -1,452 Descending Boston Center
11:52AM 41.9625 -72.8847 135° Southeast 291 335 5,000 -1,113 Descending Boston Center
11:53AM 41.9106 -72.8161 135° Southeast 266 306 4,200 -885 Descending Boston Center
11:54AM 41.8597 -72.7525 137° Southeast 241 277 3,200 -720 Descending Boston Center
11:55AM 41.8519 -72.6844 99° East 179 206 2,700 -893 Descending Boston Center
11:56AM 41.8883 -72.6531 33° Northeast 149 171 1,400 -1,140 Descending Boston Center
11:57AM 41.9250 -72.6689 342° North 138 159 400 -938 Descending Boston Center
11:59AM 41.9333 -72.6833 323° Northwest  Level FlightAware Approximate
12:06PM 41.9392 -72.6834 323° Northwest  Level Estimated

Login

Don't have an account? Register now (free) for customized features, flight alerts, and more!